createdAt,value
2018-07-02T00:00:14.635Z,99.90
2018-07-02T00:02:44.027Z,99.90
2018-07-02T00:05:13.079Z,99.90
2018-07-02T00:07:42.340Z,99.90
2018-07-02T00:10:11.518Z,99.90
2018-07-02T00:12:40.731Z,99.90
2018-07-02T00:15:09.864Z,99.90
2018-07-02T00:17:39.237Z,99.90
2018-07-02T00:20:08.720Z,99.90
2018-07-02T00:22:37.979Z,99.90
2018-07-02T00:25:07.068Z,99.90
2018-07-02T00:27:36.188Z,99.90
2018-07-02T00:30:05.419Z,99.90
2018-07-02T00:32:34.603Z,99.90
2018-07-02T00:35:03.811Z,99.90
2018-07-02T00:37:32.987Z,99.90
2018-07-02T00:40:02.236Z,99.90
2018-07-02T00:42:31.690Z,99.90
2018-07-02T00:45:01.000Z,99.90
2018-07-02T00:47:30.739Z,99.90
2018-07-02T00:49:59.868Z,99.90
2018-07-02T00:52:29.028Z,99.90
2018-07-02T00:54:58.164Z,99.90
2018-07-02T00:57:27.203Z,99.90
2018-07-02T01:00:01.643Z,99.90
2018-07-02T01:02:30.687Z,99.90
2018-07-02T01:04:59.947Z,99.90
2018-07-02T01:07:29.108Z,99.90
2018-07-02T01:09:58.292Z,99.90
2018-07-02T01:12:27.452Z,99.90
2018-07-02T01:14:56.759Z,99.90
2018-07-02T01:17:25.843Z,99.90
2018-07-02T01:19:55.072Z,99.90
2018-07-02T01:22:24.466Z,99.90
2018-07-02T01:24:53.679Z,99.90
2018-07-02T01:27:22.827Z,99.90
2018-07-02T01:29:52.310Z,99.90
2018-07-02T01:32:21.775Z,99.90
2018-07-02T01:34:50.936Z,99.90
2018-07-02T01:37:20.206Z,99.90
2018-07-02T01:39:49.335Z,99.90
2018-07-02T01:42:18.571Z,99.90
2018-07-02T01:44:47.775Z,99.90
2018-07-02T01:47:16.963Z,99.90
2018-07-02T01:49:46.164Z,99.90
2018-07-02T01:52:15.662Z,99.90
2018-07-02T01:54:44.881Z,99.90
2018-07-02T01:57:14.247Z,99.90
2018-07-02T01:59:43.620Z,99.90
2018-07-02T02:02:12.814Z,99.90
2018-07-02T02:04:42.096Z,99.90
2018-07-02T02:07:11.252Z,99.90
2018-07-02T02:09:40.454Z,99.90
2018-07-02T02:12:09.588Z,99.90
2018-07-02T02:14:38.741Z,99.90
2018-07-02T02:17:07.956Z,99.90
2018-07-02T02:19:37.440Z,99.90
2018-07-02T02:22:06.675Z,99.90
2018-07-02T02:24:35.755Z,99.90
2018-07-02T02:27:05.240Z,99.90
2018-07-02T02:29:34.307Z,99.90
2018-07-02T02:32:03.636Z,99.90
2018-07-02T02:34:32.875Z,99.90
2018-07-02T02:37:02.195Z,99.90
2018-07-02T02:39:31.484Z,99.90
2018-07-02T02:42:00.707Z,99.90
2018-07-02T02:44:30.589Z,99.90
2018-07-02T02:46:59.947Z,99.90
2018-07-02T02:49:29.083Z,99.90
2018-07-02T02:51:58.373Z,99.90
2018-07-02T02:54:27.507Z,99.90
2018-07-02T02:56:56.789Z,99.90
2018-07-02T02:59:25.915Z,99.90
2018-07-02T03:01:55.232Z,99.90
2018-07-02T03:04:24.377Z,99.90
2018-07-02T03:06:53.971Z,99.90
2018-07-02T03:09:23.127Z,99.90
2018-07-02T03:11:52.329Z,99.90
2018-07-02T03:16:50.360Z,99.90
2018-07-02T03:19:19.592Z,99.90
2018-07-02T03:21:48.967Z,99.90
2018-07-02T03:24:18.200Z,99.90
2018-07-02T03:26:47.721Z,99.90
2018-07-02T03:34:14.775Z,99.90
2018-07-02T03:36:44.023Z,99.90
2018-07-02T03:39:13.168Z,99.90
2018-07-02T03:41:42.953Z,99.90
2018-07-02T03:44:12.267Z,99.90
2018-07-02T03:46:41.476Z,99.90
2018-07-02T03:49:10.624Z,99.90
2018-07-02T03:51:39.953Z,99.90
2018-07-02T03:54:09.094Z,99.90
2018-07-02T03:56:38.130Z,99.90
2018-07-02T03:59:07.387Z,99.90
2018-07-02T04:01:36.513Z,99.90
2018-07-02T04:04:05.768Z,99.90
2018-07-02T04:09:04.453Z,99.90
2018-07-02T04:11:33.555Z,99.90
2018-07-02T04:14:02.788Z,99.90
2018-07-02T04:16:32.455Z,99.90
2018-07-02T04:19:07.032Z,99.90
2018-07-02T04:21:36.350Z,99.90
2018-07-02T04:24:05.959Z,99.90
2018-07-02T04:26:35.431Z,99.90
2018-07-02T04:29:05.191Z,99.90
2018-07-02T04:31:34.603Z,99.90
2018-07-02T04:36:32.833Z,99.90
2018-07-02T04:39:01.838Z,99.90
2018-07-02T04:41:31.179Z,99.90
2018-07-02T04:46:29.032Z,99.90
2018-07-02T04:48:58.363Z,99.90
2018-07-02T04:51:27.419Z,99.90
2018-07-02T04:53:56.650Z,99.90
2018-07-02T04:56:26.026Z,99.90
2018-07-02T04:58:55.770Z,99.90
2018-07-02T05:01:24.873Z,99.90
2018-07-02T05:03:55.140Z,99.90
2018-07-02T05:06:24.376Z,99.90
2018-07-02T05:08:53.525Z,99.90
2018-07-02T05:11:22.803Z,99.90
2018-07-02T05:13:52.049Z,99.90
2018-07-02T05:16:21.436Z,99.90
2018-07-02T05:18:50.608Z,99.90
2018-07-02T05:21:19.815Z,99.90
2018-07-02T05:23:49.136Z,99.90
2018-07-02T05:26:18.730Z,99.90
2018-07-02T05:28:48.167Z,99.90
2018-07-02T05:31:17.700Z,99.90
2018-07-02T05:33:46.897Z,99.90
2018-07-02T05:36:16.163Z,99.90
2018-07-02T05:38:45.468Z,99.90
2018-07-02T05:41:14.880Z,99.90
2018-07-02T05:43:44.283Z,99.90
2018-07-02T05:46:13.662Z,99.90
2018-07-02T05:48:43.032Z,99.90
2018-07-02T05:51:12.608Z,99.90
2018-07-02T05:53:41.916Z,99.90
2018-07-02T05:56:11.077Z,99.90
2018-07-02T05:58:40.189Z,99.90
2018-07-02T06:01:09.415Z,99.90
2018-07-02T06:03:38.829Z,99.90
2018-07-02T06:06:08.108Z,99.90
2018-07-02T06:08:37.263Z,99.90
2018-07-02T06:11:06.675Z,99.90
2018-07-02T06:13:36.133Z,99.90
2018-07-02T06:16:05.669Z,99.90
2018-07-02T06:18:35.180Z,99.90
2018-07-02T06:21:04.388Z,99.90
2018-07-02T06:23:33.540Z,99.90
2018-07-02T06:26:02.984Z,99.90
2018-07-02T06:28:32.256Z,99.90
2018-07-02T06:31:03.020Z,99.90
2018-07-02T06:33:32.762Z,99.90
2018-07-02T06:36:01.817Z,99.90
2018-07-02T06:38:31.080Z,99.90
2018-07-02T06:41:00.301Z,99.90
2018-07-02T06:43:29.720Z,99.90
2018-07-02T06:45:59.060Z,99.90
2018-07-02T06:48:28.384Z,99.90
2018-07-02T06:50:57.629Z,99.90
2018-07-02T06:53:26.879Z,99.90
2018-07-02T06:55:56.620Z,99.90
2018-07-02T06:58:26.037Z,99.90
2018-07-02T07:00:55.332Z,99.90
2018-07-02T07:03:24.552Z,99.90
2018-07-02T07:08:22.791Z,99.90
2018-07-02T07:10:52.073Z,99.90
2018-07-02T07:13:21.469Z,99.90
2018-07-02T07:15:50.930Z,99.90
2018-07-02T07:18:20.096Z,99.90
2018-07-02T07:20:49.415Z,99.90
2018-07-02T07:23:19.250Z,99.90
2018-07-02T07:25:48.458Z,99.90
2018-07-02T07:28:17.959Z,99.90
2018-07-02T07:30:47.531Z,99.90
2018-07-02T07:33:16.741Z,99.90
2018-07-02T07:35:45.954Z,99.90
2018-07-02T07:38:15.223Z,99.90
2018-07-02T07:40:44.423Z,99.90
2018-07-02T07:43:13.947Z,99.90
2018-07-02T07:45:43.293Z,99.90
2018-07-02T07:48:12.521Z,99.90
2018-07-02T07:50:41.799Z,99.90
2018-07-02T07:53:11.285Z,99.90
2018-07-02T07:55:40.751Z,99.90
2018-07-02T07:58:10.180Z,99.90
2018-07-02T08:00:39.299Z,99.90
2018-07-02T08:03:08.783Z,99.90
2018-07-02T08:05:37.963Z,99.90
2018-07-02T08:08:07.163Z,99.90
2018-07-02T08:10:36.276Z,99.90
2018-07-02T08:13:05.520Z,99.90
2018-07-02T08:15:34.872Z,99.90
2018-07-02T08:18:04.106Z,99.90
2018-07-02T08:20:33.428Z,99.90
2018-07-02T08:25:32.196Z,99.90
2018-07-02T08:28:01.366Z,99.90
2018-07-02T08:30:30.376Z,99.90
2018-07-02T08:32:59.715Z,99.90
2018-07-02T08:35:28.918Z,99.90
2018-07-02T08:37:58.043Z,99.90
2018-07-02T08:40:27.171Z,99.90
2018-07-02T08:42:56.352Z,99.90
2018-07-02T08:45:25.604Z,99.90
2018-07-02T08:47:54.889Z,99.90
2018-07-02T08:50:23.897Z,99.90
2018-07-02T08:52:53.124Z,99.90
2018-07-02T08:55:22.221Z,99.90
2018-07-02T08:57:51.468Z,99.90
2018-07-02T09:00:20.683Z,99.90
2018-07-02T09:02:50.512Z,99.50
2018-07-02T09:05:19.635Z,99.90
2018-07-02T09:07:49.222Z,81.00
2018-07-02T09:10:18.570Z,98.00
2018-07-02T09:12:48.029Z,99.90
2018-07-02T09:15:17.651Z,99.90
2018-07-02T09:17:46.796Z,99.90
2018-07-02T09:20:16.020Z,99.90
2018-07-02T09:22:45.324Z,99.90
2018-07-02T09:25:14.420Z,99.90
2018-07-02T09:27:43.567Z,99.90
2018-07-02T09:30:12.980Z,99.90
2018-07-02T09:32:42.039Z,99.90
2018-07-02T09:35:11.404Z,99.90
2018-07-02T09:37:40.970Z,99.90
2018-07-02T09:40:09.867Z,99.90
2018-07-02T09:42:39.055Z,99.90
2018-07-02T09:45:08.798Z,99.90
2018-07-02T09:47:37.985Z,99.90
2018-07-02T09:50:07.432Z,99.90
2018-07-02T09:52:36.508Z,99.90
2018-07-02T09:55:05.815Z,99.90
2018-07-02T09:57:35.005Z,99.90
2018-07-02T10:00:04.231Z,99.90
2018-07-02T10:02:33.419Z,99.90
2018-07-02T10:05:03.019Z,99.90
2018-07-02T10:10:00.839Z,99.90
2018-07-02T10:12:30.043Z,94.90
2018-07-02T10:14:59.550Z,99.90
2018-07-02T10:17:28.937Z,99.90
2018-07-02T10:19:58.327Z,99.90
2018-07-02T10:22:27.553Z,99.90
2018-07-02T10:24:56.696Z,99.90
2018-07-02T10:27:25.884Z,99.90
2018-07-02T10:29:55.297Z,99.90
2018-07-02T10:32:24.663Z,99.90
2018-07-02T10:34:53.990Z,99.90
2018-07-02T10:37:23.149Z,99.90
2018-07-02T10:39:52.711Z,99.90
2018-07-02T10:42:22.217Z,99.90
2018-07-02T10:44:51.515Z,99.90
2018-07-02T10:47:21.129Z,93.10
2018-07-02T10:49:50.827Z,99.90
2018-07-02T10:52:20.152Z,99.90
2018-07-02T10:54:49.744Z,99.90
2018-07-02T10:57:19.060Z,99.90
2018-07-02T10:59:48.193Z,99.90
2018-07-02T11:02:17.304Z,99.90
2018-07-02T11:04:46.831Z,99.90
2018-07-02T11:07:16.000Z,99.90
2018-07-02T11:09:45.187Z,99.90
2018-07-02T11:12:14.424Z,99.90
2018-07-02T11:14:44.068Z,99.90
2018-07-02T11:17:13.245Z,99.90
2018-07-02T11:19:42.413Z,99.90
2018-07-02T11:22:11.588Z,99.90
2018-07-02T11:24:40.835Z,99.90
2018-07-02T11:27:10.176Z,99.90
2018-07-02T11:29:39.677Z,99.90
2018-07-02T11:32:09.210Z,99.90
2018-07-02T11:34:38.688Z,99.90
2018-07-02T11:37:07.918Z,91.00
2018-07-02T11:39:37.036Z,79.80
2018-07-02T11:42:06.330Z,91.80
2018-07-02T11:44:35.594Z,99.90
2018-07-02T11:47:04.727Z,99.90
2018-07-02T11:49:33.944Z,99.90
2018-07-02T11:52:03.257Z,99.90
2018-07-02T11:54:32.424Z,99.80
2018-07-02T11:57:01.750Z,99.90
2018-07-02T11:59:30.881Z,99.90
2018-07-02T12:02:00.463Z,85.00
2018-07-02T12:04:30.360Z,99.90
2018-07-02T12:09:28.508Z,95.90
2018-07-02T12:11:58.242Z,99.90
2018-07-02T12:14:27.536Z,99.90
2018-07-02T12:16:56.876Z,99.90
2018-07-02T12:19:26.653Z,99.60
2018-07-02T12:21:56.064Z,99.90
2018-07-02T12:24:25.776Z,99.90
2018-07-02T12:26:55.082Z,89.40
2018-07-02T12:29:24.422Z,89.40
2018-07-02T12:31:53.713Z,96.50
2018-07-02T12:34:23.152Z,81.00
2018-07-02T12:36:52.473Z,76.20
2018-07-02T12:39:22.174Z,93.60
2018-07-02T12:41:51.418Z,87.10
2018-07-02T12:44:20.822Z,77.80
2018-07-02T12:46:50.854Z,81.30
2018-07-02T12:49:20.424Z,95.70
2018-07-02T12:51:49.700Z,90.90
2018-07-02T12:54:19.145Z,99.90
2018-07-02T12:56:49.517Z,85.80
2018-07-02T12:59:19.212Z,96.20
2018-07-02T13:01:48.947Z,99.60
2018-07-02T13:04:18.119Z,72.00
2018-07-02T13:06:47.663Z,62.10
2018-07-02T13:09:16.723Z,68.40
2018-07-02T13:11:45.924Z,75.20
2018-07-02T13:14:15.385Z,76.80
2018-07-02T13:16:44.523Z,75.10
2018-07-02T13:19:13.820Z,76.70
2018-07-02T13:21:43.806Z,81.50
2018-07-02T13:24:13.106Z,93.10
2018-07-02T13:26:42.419Z,76.60
2018-07-02T13:29:11.549Z,90.50
2018-07-02T13:31:40.793Z,81.00
2018-07-02T13:34:10.105Z,82.50
2018-07-02T13:36:39.409Z,69.60
2018-07-02T13:39:09.017Z,68.30
2018-07-02T13:41:38.352Z,70.70
2018-07-02T13:44:07.563Z,78.90
2018-07-02T13:46:37.000Z,77.00
2018-07-02T13:49:06.323Z,65.00
2018-07-02T13:51:35.415Z,61.30
2018-07-02T13:54:04.637Z,59.70
2018-07-02T13:56:34.133Z,59.20
2018-07-02T13:59:03.471Z,58.50
2018-07-02T14:01:32.731Z,60.90
2018-07-02T14:04:02.060Z,61.60
2018-07-02T14:06:31.362Z,68.10
2018-07-02T14:13:57.884Z,60.90
2018-07-02T14:16:27.117Z,61.60
2018-07-02T14:18:56.250Z,77.20
2018-07-02T14:21:25.689Z,69.70
2018-07-02T14:23:55.060Z,65.30
2018-07-02T14:26:24.313Z,62.20
2018-07-02T14:28:53.495Z,64.20
2018-07-02T14:31:22.701Z,62.90
2018-07-02T14:33:51.720Z,62.00
2018-07-02T14:36:21.196Z,57.10
2018-07-02T14:38:50.720Z,59.80
2018-07-02T14:41:19.966Z,61.20
2018-07-02T14:43:49.025Z,56.50
2018-07-02T14:46:18.586Z,59.00
2018-07-02T14:48:47.837Z,61.00
2018-07-02T14:51:16.998Z,60.20
2018-07-02T14:53:47.408Z,61.50
2018-07-02T14:56:16.565Z,63.70
2018-07-02T14:58:45.536Z,66.20
2018-07-02T15:01:14.736Z,68.50
2018-07-02T15:03:43.995Z,74.40
2018-07-02T15:06:13.586Z,61.20
2018-07-02T15:08:42.993Z,61.40
2018-07-02T15:11:12.163Z,63.80
2018-07-02T15:13:41.656Z,62.40
2018-07-02T15:16:11.394Z,66.10
2018-07-02T15:18:40.461Z,59.70
2018-07-02T15:21:09.694Z,57.80
2018-07-02T15:23:39.614Z,62.90
2018-07-02T15:26:09.489Z,64.80
2018-07-02T15:28:38.937Z,63.80
2018-07-02T15:31:08.627Z,62.80
2018-07-02T15:33:37.742Z,66.00
2018-07-02T15:36:06.944Z,67.60
2018-07-02T15:38:36.206Z,68.50
2018-07-02T15:41:05.625Z,68.30
2018-07-02T15:43:34.785Z,62.40
2018-07-02T15:46:04.363Z,66.60
2018-07-02T15:48:34.156Z,64.50
2018-07-02T15:51:03.190Z,62.70
2018-07-02T15:53:32.346Z,61.80
2018-07-02T15:56:01.667Z,63.90
2018-07-02T15:58:31.191Z,64.60
2018-07-02T16:01:00.400Z,68.90
2018-07-02T16:03:30.267Z,67.00
2018-07-02T16:08:28.231Z,70.40
2018-07-02T16:10:57.473Z,64.50
2018-07-02T16:13:27.111Z,62.60
2018-07-02T16:15:56.579Z,68.60
2018-07-02T16:18:25.917Z,76.00
2018-07-02T16:20:55.350Z,71.90
2018-07-02T16:23:25.053Z,80.70
2018-07-02T16:25:54.660Z,88.90
2018-07-02T16:28:23.917Z,91.10
2018-07-02T16:30:53.717Z,73.60
2018-07-02T16:33:23.016Z,79.80
2018-07-02T16:35:52.219Z,66.10
2018-07-02T16:38:21.749Z,70.20
2018-07-02T16:40:50.978Z,68.60
2018-07-02T16:43:20.451Z,70.00
2018-07-02T16:45:50.075Z,73.60
2018-07-02T16:48:20.581Z,78.80
2018-07-02T16:50:50.248Z,93.90
2018-07-02T16:53:20.319Z,99.00
2018-07-02T16:55:51.227Z,89.40
2018-07-02T16:58:20.825Z,91.20
2018-07-02T17:00:50.135Z,91.10
2018-07-02T17:03:19.681Z,99.90
2018-07-02T17:05:49.227Z,99.90
2018-07-02T17:08:18.385Z,99.90
2018-07-02T17:10:47.556Z,99.90
2018-07-02T17:13:17.225Z,99.90
2018-07-02T17:15:46.438Z,99.90
2018-07-02T17:18:16.013Z,99.90
2018-07-02T17:20:45.387Z,99.90
2018-07-02T17:23:14.627Z,99.90
2018-07-02T17:25:43.778Z,99.90
2018-07-02T17:28:13.472Z,99.90
2018-07-02T17:30:42.744Z,99.90
2018-07-02T17:33:12.151Z,99.90
2018-07-02T17:35:41.566Z,99.90
2018-07-02T17:38:10.965Z,99.90
2018-07-02T17:40:40.410Z,99.90
2018-07-02T17:43:09.603Z,99.90
2018-07-02T17:45:39.584Z,99.90
2018-07-02T17:48:08.594Z,99.90
2018-07-02T17:50:38.229Z,99.90
2018-07-02T17:53:07.652Z,99.90
2018-07-02T17:55:36.912Z,99.90
2018-07-02T17:58:06.630Z,99.90
2018-07-02T18:00:36.773Z,99.90
2018-07-02T18:03:06.366Z,99.90
2018-07-02T18:05:35.902Z,99.90
2018-07-02T18:08:05.663Z,99.90
2018-07-02T18:10:35.101Z,99.90
2018-07-02T18:13:04.630Z,99.90
2018-07-02T18:15:34.147Z,99.90
2018-07-02T18:18:03.757Z,99.90
2018-07-02T18:20:32.934Z,99.90
2018-07-02T18:23:02.406Z,99.90
2018-07-02T18:25:31.651Z,99.90
2018-07-02T18:28:01.222Z,99.90
2018-07-02T18:30:30.656Z,99.90
2018-07-02T18:33:00.622Z,99.90
2018-07-02T18:35:29.938Z,99.90
2018-07-02T18:37:59.000Z,99.90
2018-07-02T18:40:28.582Z,99.90
2018-07-02T18:42:58.244Z,99.90
2018-07-02T18:45:27.892Z,99.90
2018-07-02T18:47:58.471Z,99.90
2018-07-02T18:50:27.763Z,99.90
2018-07-02T18:52:57.009Z,99.90
2018-07-02T18:55:26.346Z,99.90
2018-07-02T18:57:55.814Z,99.90
2018-07-02T19:00:25.785Z,99.90
2018-07-02T19:02:55.030Z,99.90
2018-07-02T19:05:24.450Z,99.90
2018-07-02T19:07:53.857Z,99.90
2018-07-02T19:10:23.772Z,99.90
2018-07-02T19:12:53.484Z,99.90
2018-07-02T19:15:23.353Z,99.90
2018-07-02T19:17:52.598Z,99.90
2018-07-02T19:20:21.924Z,99.90
2018-07-02T19:22:51.288Z,99.90
2018-07-02T19:25:20.495Z,99.90
2018-07-02T19:32:48.552Z,99.90
2018-07-02T19:35:17.832Z,99.90
2018-07-02T19:37:46.985Z,99.90
2018-07-02T19:40:16.834Z,99.90
2018-07-02T19:42:46.704Z,99.90
2018-07-02T19:45:17.307Z,99.90
2018-07-02T19:47:47.128Z,99.90
2018-07-02T19:50:16.798Z,99.90
2018-07-02T19:52:45.964Z,99.90
2018-07-02T19:55:15.179Z,99.90
2018-07-02T19:57:44.806Z,99.90
2018-07-02T20:00:14.008Z,99.90
2018-07-02T20:02:43.360Z,99.90
2018-07-02T20:05:12.444Z,99.90
2018-07-02T20:07:41.867Z,99.90
2018-07-02T20:10:11.084Z,99.90
2018-07-02T20:12:40.652Z,99.90
2018-07-02T20:15:10.008Z,99.90
2018-07-02T20:17:39.568Z,99.90
2018-07-02T20:20:10.858Z,99.90
2018-07-02T20:22:40.195Z,99.90
2018-07-02T20:25:10.286Z,99.90
2018-07-02T20:27:39.581Z,99.90
2018-07-02T20:30:09.433Z,99.90
2018-07-02T20:32:41.481Z,99.90
2018-07-02T20:35:11.508Z,99.90
2018-07-02T20:37:41.024Z,99.90
2018-07-02T20:40:10.353Z,99.90
2018-07-02T20:42:39.539Z,99.90
2018-07-02T20:45:10.069Z,99.90
2018-07-02T20:47:39.276Z,99.90
2018-07-02T20:50:08.715Z,99.90
2018-07-02T20:52:38.265Z,99.90
2018-07-02T20:55:07.544Z,99.90
2018-07-02T20:57:37.403Z,99.90
2018-07-02T21:00:07.492Z,99.90
2018-07-02T21:02:36.762Z,99.90
2018-07-02T21:05:05.975Z,99.90
2018-07-02T21:07:35.182Z,99.90
2018-07-02T21:10:04.947Z,99.90
2018-07-02T21:12:33.939Z,99.90
2018-07-02T21:15:03.221Z,99.90
2018-07-02T21:17:32.308Z,99.90
2018-07-02T21:20:01.825Z,99.90
2018-07-02T21:22:31.111Z,99.90
2018-07-02T21:25:00.236Z,99.90
2018-07-02T21:27:29.464Z,99.90
2018-07-02T21:29:58.687Z,99.90
2018-07-02T21:32:27.872Z,99.90
2018-07-02T21:34:57.066Z,99.90
2018-07-02T21:37:26.364Z,99.90
2018-07-02T21:39:55.477Z,99.90
2018-07-02T21:42:25.456Z,99.90
2018-07-02T21:44:54.848Z,99.90
2018-07-02T21:47:25.252Z,99.90
2018-07-02T21:49:55.173Z,99.90
2018-07-02T21:52:24.670Z,99.90
2018-07-02T21:54:54.113Z,99.90
2018-07-02T21:57:23.592Z,99.90
2018-07-02T21:59:53.008Z,99.90
2018-07-02T22:02:22.139Z,99.90
2018-07-02T22:04:51.433Z,99.90
2018-07-02T22:07:20.545Z,99.90
2018-07-02T22:09:49.779Z,99.90
2018-07-02T22:12:19.228Z,99.90
2018-07-02T22:14:48.747Z,99.90
2018-07-02T22:17:18.231Z,99.90
2018-07-02T22:19:47.817Z,99.90
2018-07-02T22:22:17.439Z,99.90
2018-07-02T22:24:47.152Z,99.90
2018-07-02T22:27:16.628Z,99.90
2018-07-02T22:29:46.302Z,99.90
2018-07-02T22:32:15.627Z,99.90
2018-07-02T22:34:44.936Z,99.90
2018-07-02T22:37:14.131Z,99.90
2018-07-02T22:39:43.467Z,99.90
2018-07-02T22:42:12.927Z,99.90
2018-07-02T22:44:42.094Z,99.90
2018-07-02T22:47:11.607Z,99.90
2018-07-02T22:49:40.717Z,99.90
2018-07-02T22:52:09.916Z,99.90
2018-07-02T22:54:39.148Z,99.90
2018-07-02T22:57:08.327Z,99.90
2018-07-02T22:59:37.710Z,99.90
2018-07-02T23:02:06.852Z,99.90
2018-07-02T23:04:35.860Z,99.90
2018-07-02T23:07:05.107Z,99.90
2018-07-02T23:09:34.443Z,99.90
2018-07-02T23:14:32.329Z,99.90
2018-07-02T23:17:01.416Z,99.90
2018-07-02T23:19:30.563Z,99.90
2018-07-02T23:21:59.724Z,99.90
2018-07-02T23:24:29.128Z,99.90
2018-07-02T23:26:58.131Z,99.90
2018-07-02T23:29:27.280Z,99.90
2018-07-02T23:31:56.508Z,99.90
2018-07-02T23:34:25.907Z,99.90
2018-07-02T23:36:54.904Z,99.90
2018-07-02T23:39:24.184Z,99.90
2018-07-02T23:41:53.301Z,99.90
2018-07-02T23:44:22.771Z,99.90
2018-07-02T23:46:51.955Z,99.90
2018-07-02T23:49:21.374Z,99.90
2018-07-02T23:51:50.737Z,99.90
2018-07-02T23:54:19.837Z,99.90
2018-07-02T23:56:49.246Z,99.90
2018-07-02T23:59:18.391Z,99.90
